Погода Шубичина 2 недели

Брестская область, Белоруссия

19 - 31 июля
  • 19июля
    Сегодня
    +13°
    +25°
    Ясно и безоблачно
    ВремяПогодаТемператураВлажностьДавлениеВетер, м/сВероятность осадков
    00:00Практически безоблачно+19°C64 %751 мм3.2 м/с2 %
    03:00Практически безоблачно+17°C75 %751 мм2.5 м/с2 %
    06:00Практически безоблачно+16°C82 %751 мм2.9 м/с2 %
    09:00Ясно и безоблачно+19°C74 %752 мм2.5 м/с2 %
    12:00Ясно и безоблачно+22°C55 %751 мм3.0 м/с2 %
    15:00Ясно и безоблачно+24°C47 %750 мм4.0 м/с2 %
    18:00Ясно и безоблачно+25°C49 %749 мм3.9 м/с2 %
    21:00Ясно и безоблачно+22°C64 %749 мм2.3 м/с2 %
  • 20июля
    Суббота
    +14°
    +25°
    Ясно и безоблачно
    ВремяПогодаТемператураВлажностьДавлениеВетер, м/сВероятность осадков
    00:00Ясно и безоблачно+17°C72 %749 мм2.4 м/с2 %
    03:00Ясно и безоблачно+15°C79 %749 мм2.0 м/с2 %
    06:00Ясно и безоблачно+13°C89 %748 мм1.6 м/с2 %
    09:00Ясно и безоблачно+18°C71 %748 мм1.6 м/с2 %
    12:00Небольшая облачность+21°C55 %747 мм2.1 м/с2 %
    15:00Ясно и безоблачно+24°C45 %746 мм2.1 м/с2 %
    18:00Ясно и безоблачно+25°C44 %745 мм1.8 м/с2 %
    21:00Ясно и безоблачно+21°C71 %745 мм1.8 м/с2 %
  • 21июля
    Воскресенье
    +16°
    +27°
    Практически безоблачно
    ВремяПогодаТемператураВлажностьДавлениеВетер, м/сВероятность осадков
    00:00Ясно и безоблачно+17°C82 %745 мм2.2 м/с2 %
    03:00Небольшая облачность+15°C86 %744 мм1.7 м/с2 %
    06:00Ясно и безоблачно+14°C90 %744 мм1.9 м/с2 %
    09:00Ясно и безоблачно+21°C65 %744 мм1.4 м/с2 %
    12:00Ясно и безоблачно+24°C46 %744 мм0.2 м/с2 %
    15:00Практически безоблачно+25°C42 %744 мм2.2 м/с13 %
    18:00Небольшая облачность+26°C41 %743 мм1.1 м/с6 %
    21:00Ясно и безоблачно+23°C60 %743 мм1.8 м/с2 %
  • 22июля
    Понедельник
    +15°
    +28°
    Практически безоблачно
    ВремяПогодаТемператураВлажностьДавлениеВетер, м/сВероятность осадков
    00:00Ясно и безоблачно+19°C68 %743 мм2.1 м/с2 %
    03:00Ясно и безоблачно+17°C76 %743 мм2.1 м/с2 %
    06:00Небольшая облачность+16°C77 %743 мм1.8 м/с2 %
    09:00Практически безоблачно+21°C66 %744 мм0.3 м/с2 %
    12:00Практически безоблачно+26°C43 %744 мм0.7 м/с3 %
    15:00Практически безоблачно+28°C42 %744 мм0.2 м/с10 %
    18:00Небольшая облачность+28°C41 %743 мм0.7 м/с12 %
    21:00Практически безоблачно+23°C65 %744 мм1.9 м/с16 %
Мы используем cookies
Соглашаюсь